Time;durP1;ratioP1;P1;durP2;ratioP2;P2;SDS_P1;SDS_P2;PMS_P1;PMS_P2;Temp;Humidity;BMP_temperature;BMP_pressure;BME280_temperature;BME280_humidity;BME280_pressure;Samples;Min_cycle;Max_cycle;Signal;HPM_P1;HPM_P2
2022/10/10 00:02:06;;;;;;;8.95;6.78;;;;;;;7.14;100.00;101467.13;5017826;28;20067;-72
2022/10/10 00:04:31;;;;;;;12.10;7.05;;;;;;;7.08;100.00;101460.19;5010185;28;20041;-72
2022/10/10 00:06:57;;;;;;;14.00;7.63;;;;;;;7.04;100.00;101463.66;5014783;28;20029;-72
2022/10/10 00:09:22;;;;;;;9.20;6.95;;;;;;;7.04;100.00;101466.25;5010390;28;20030;-72
2022/10/10 00:11:47;;;;;;;8.93;6.57;;;;;;;6.86;100.00;101443.75;5014310;28;20359;-72
2022/10/10 00:14:12;;;;;;;13.80;7.95;;;;;;;6.96;100.00;101460.19;5011030;28;20048;-72
2022/10/10 00:16:38;;;;;;;10.57;6.93;;;;;;;6.95;100.00;101464.50;5005927;28;20105;-72
2022/10/10 00:19:03;;;;;;;11.05;7.97;;;;;;;6.91;100.00;101455.00;5010207;28;20026;-72
2022/10/10 00:21:29;;;;;;;11.50;7.93;;;;;;;6.92;100.00;101461.06;5010556;28;20025;-72
2022/10/10 00:23:54;;;;;;;12.68;7.97;;;;;;;6.88;100.00;101457.59;5009650;28;20030;-72
2022/10/10 00:26:19;;;;;;;10.15;8.07;;;;;;;6.80;100.00;101454.09;5013003;28;20665;-72
2022/10/10 00:28:45;;;;;;;13.95;8.02;;;;;;;6.76;100.00;101455.81;5014338;28;20107;-72
2022/10/10 00:31:10;;;;;;;12.63;8.02;;;;;;;6.70;100.00;101442.88;5014290;28;20025;-72
2022/10/10 00:33:36;;;;;;;14.48;8.20;;;;;;;6.71;100.00;101442.00;5016000;28;20030;-72
2022/10/10 00:36:03;;;;;;;13.63;8.27;;;;;;;6.69;100.00;101461.88;5013767;28;20100;-72
2022/10/10 00:38:28;;;;;;;13.60;8.50;;;;;;;6.57;100.00;101435.91;5012976;28;20041;-72
2022/10/10 00:40:55;;;;;;;12.38;8.20;;;;;;;6.66;100.00;101453.22;5012979;28;20096;-72
2022/10/10 00:43:23;;;;;;;12.70;8.32;;;;;;;6.63;100.00;101448.88;5012835;28;20026;-72
2022/10/10 00:45:49;;;;;;;10.77;7.72;;;;;;;6.61;100.00;101445.44;5014708;28;20030;-72
2022/10/10 00:48:31;;;;;;;14.05;7.85;;;;;;;6.61;100.00;101453.22;5006605;28;20100;-72
2022/10/10 00:51:08;;;;;;;12.00;7.63;;;;;;;6.52;100.00;101433.31;5012092;28;20876;-72
2022/10/10 00:53:58;;;;;;;11.40;7.75;;;;;;;6.56;100.00;101440.25;5013070;28;20101;-71
2022/10/10 00:56:35;;;;;;;12.65;7.60;;;;;;;6.55;100.00;101442.84;5010823;28;20021;-72
2022/10/10 00:59:04;;;;;;;10.60;7.68;;;;;;;6.50;100.00;101435.03;5013499;28;20022;-72
2022/10/10 01:01:29;;;;;;;12.93;8.00;;;;;;;6.52;100.00;101432.47;5013999;28;20022;-72
2022/10/10 01:03:59;;;;;;;13.93;8.05;;;;;;;6.47;100.00;101435.03;5012110;28;20038;-72
2022/10/10 01:06:24;;;;;;;11.10;7.35;;;;;;;6.48;100.00;101429.00;5011811;28;20076;-72
2022/10/10 01:08:50;;;;;;;10.20;7.82;;;;;;;6.43;100.00;101432.44;5012274;28;20018;-72
2022/10/10 01:11:44;;;;;;;11.77;8.02;;;;;;;6.41;100.00;101418.59;5014818;28;20104;-72
2022/10/10 01:14:18;;;;;;;;;;;;;;;6.45;100.00;101422.97;5010599;28;20030;-72
2022/10/10 01:17:04;;;;;;;12.63;7.15;;;;;;;6.39;100.00;101410.84;5011071;28;19917;-72
2022/10/10 01:19:33;;;;;;;11.90;8.13;;;;;;;6.45;100.00;101420.38;5012486;28;20432;-72
2022/10/10 01:22:19;;;;;;;11.13;7.60;;;;;;;6.42;100.00;101425.53;5013791;28;20072;-72
2022/10/10 01:25:22;;;;;;;13.90;7.40;;;;;;;6.41;100.00;101431.56;5013121;28;20080;-72
2022/10/10 01:27:58;;;;;;;13.13;7.90;;;;;;;6.38;100.00;101428.97;5012045;28;20034;-72
2022/10/10 01:30:24;;;;;;;13.05;7.82;;;;;;;6.41;100.00;101431.56;5021348;28;20030;-71
2022/10/10 01:32:58;;;;;;;11.35;8.10;;;;;;;6.38;100.00;101429.84;5013372;28;20036;-72
2022/10/10 01:35:29;;;;;;;11.00;7.97;;;;;;;6.37;100.00;101422.06;5013149;28;20033;-72
2022/10/10 01:38:09;;;;;;;13.20;9.15;;;;;;;6.36;100.00;101428.09;5013008;28;20470;-72
2022/10/10 01:40:47;;;;;;;15.57;8.43;;;;;;;6.31;100.00;101408.25;4999058;28;20040;-72
2022/10/10 01:43:13;;;;;;;12.90;7.95;;;;;;;6.31;100.00;101418.59;5011237;28;20069;-72
2022/10/10 01:45:46;;;;;;;13.07;8.43;;;;;;;6.28;100.00;101408.22;5012880;28;20471;-72
2022/10/10 01:48:12;;;;;;;;;;;;;;;6.31;100.00;101409.94;5013274;28;20038;-72
2022/10/10 01:51:09;;;;;;;11.00;7.45;;;;;;;6.30;100.00;101416.00;5012652;28;19956;-72
2022/10/10 01:53:48;;;;;;;14.23;8.60;;;;;;;6.26;100.00;101409.06;5013061;28;20049;-72
2022/10/10 01:56:43;;;;;;;12.70;7.53;;;;;;;6.28;100.00;101405.66;5013544;28;20022;-72
2022/10/10 01:59:45;;;;;;;10.77;7.55;;;;;;;6.24;100.00;101401.28;5012221;28;20041;-72
2022/10/10 02:02:30;;;;;;;13.10;8.10;;;;;;;6.25;100.00;101402.19;5014873;28;20167;-72
2022/10/10 02:05:03;;;;;;;11.52;7.72;;;;;;;6.23;100.00;101403.88;5001101;28;20112;-72
2022/10/10 02:07:42;;;;;;;16.80;9.27;;;;;;;6.23;100.00;101401.31;5011202;28;20061;-72
2022/10/10 02:10:10;;;;;;;11.63;7.68;;;;;;;6.22;100.00;101394.41;5013903;28;20056;-72
2022/10/10 02:12:37;;;;;;;11.15;7.90;;;;;;;6.18;100.00;101378.00;5013847;28;20026;-72
2022/10/10 02:15:13;;;;;;;10.52;8.38;;;;;;;6.23;100.00;101389.22;4994803;28;20121;-72
2022/10/10 02:17:40;;;;;;;11.57;8.63;;;;;;;6.22;100.00;101387.50;5010911;28;20049;-72
2022/10/10 02:20:09;;;;;;;13.15;8.55;;;;;;;6.25;100.00;101381.47;5012075;28;20466;-72
2022/10/10 02:22:36;;;;;;;12.20;8.15;;;;;;;6.23;100.00;101383.19;5009848;28;20485;-72
2022/10/10 02:25:01;;;;;;;14.50;8.25;;;;;;;6.20;100.00;101381.44;5013024;28;20065;-72
2022/10/10 02:27:38;;;;;;;13.85;8.00;;;;;;;6.21;100.00;101380.59;5011220;28;20060;-72
2022/10/10 02:30:05;;;;;;;13.55;8.90;;;;;;;6.22;100.00;101377.13;5010794;28;20029;-72
2022/10/10 02:32:59;;;;;;;12.80;8.27;;;;;;;6.17;100.00;101375.38;5010917;28;20033;-72
2022/10/10 02:35:27;;;;;;;;;;;;;;;6.18;100.00;101375.41;5012164;28;20030;-72
2022/10/10 02:37:53;;;;;;;11.35;7.63;;;;;;;6.16;100.00;101371.06;5011499;28;19921;-72
2022/10/10 02:40:27;;;;;;;12.27;8.00;;;;;;;6.16;100.00;101365.91;5012369;28;20026;-72
2022/10/10 02:42:54;;;;;;;11.70;8.80;;;;;;;6.16;100.00;101360.72;5012947;28;20114;-72
2022/10/10 02:45:20;;;;;;;10.80;7.75;;;;;;;6.18;100.00;101364.16;5011228;28;20032;-72
2022/10/10 02:47:46;;;;;;;13.75;8.13;;;;;;;6.20;100.00;101365.91;5011747;28;20033;-72
2022/10/10 02:50:11;;;;;;;15.32;8.52;;;;;;;6.19;100.00;101359.00;5010510;28;20045;-72
2022/10/10 02:52:37;;;;;;;15.43;8.23;;;;;;;6.17;100.00;101358.13;5010896;28;20481;-72
2022/10/10 02:55:02;;;;;;;14.40;8.45;;;;;;;6.18;100.00;101351.22;5012478;28;20041;-72
2022/10/10 02:57:28;;;;;;;12.07;8.13;;;;;;;6.14;100.00;101346.91;5010751;28;20580;-72
2022/10/10 02:59:53;;;;;;;10.90;7.60;;;;;;;6.15;100.00;101349.50;5011918;28;20036;-72
2022/10/10 03:02:18;;;;;;;13.43;8.35;;;;;;;6.12;100.00;101346.91;5012178;28;20080;-72
2022/10/10 03:04:44;;;;;;;10.65;7.57;;;;;;;6.13;100.00;101337.41;5007848;28;20034;-72
2022/10/10 03:07:10;;;;;;;13.48;8.23;;;;;;;6.14;100.00;101342.56;5011804;28;20063;-72
2022/10/10 03:09:35;;;;;;;12.90;8.00;;;;;;;6.13;100.00;101340.84;5011529;28;20026;-72
2022/10/10 03:12:00;;;;;;;12.05;8.07;;;;;;;6.13;100.00;101337.41;5011794;28;20076;-72
2022/10/10 03:14:26;;;;;;;13.27;8.32;;;;;;;6.10;100.00;101335.66;5010937;28;20489;-72
2022/10/10 03:16:51;;;;;;;14.77;8.35;;;;;;;6.10;100.00;101339.13;5011265;28;20033;-71
2022/10/10 03:19:17;;;;;;;12.25;7.78;;;;;;;6.13;100.00;101334.81;5011432;28;20034;-72
2022/10/10 03:21:42;;;;;;;13.00;7.72;;;;;;;6.16;100.00;101330.50;5014768;28;20034;-72
2022/10/10 03:24:08;;;;;;;12.80;8.00;;;;;;;6.14;100.00;101332.22;5004905;28;20035;-72
2022/10/10 03:26:33;;;;;;;14.95;7.85;;;;;;;6.17;100.00;101329.66;5007508;28;20045;-72
2022/10/10 03:29:00;;;;;;;10.07;7.28;;;;;;;6.14;100.00;101327.03;5012253;28;20112;-72
2022/10/10 03:31:26;;;;;;;14.90;7.90;;;;;;;6.13;100.00;101333.09;5012584;28;20034;-72
2022/10/10 03:33:51;;;;;;;12.70;7.43;;;;;;;6.10;100.00;101326.19;5010804;28;20095;-72
2022/10/10 03:36:16;;;;;;;13.80;7.85;;;;;;;6.08;100.00;101334.78;5013093;28;20033;-72
2022/10/10 03:38:42;;;;;;;13.80;7.40;;;;;;;6.01;100.00;101315.78;5009572;28;20042;-72
2022/10/10 03:41:07;;;;;;;13.27;8.00;;;;;;;6.09;100.00;101329.63;5008065;28;20033;-72
2022/10/10 03:43:32;;;;;;;12.02;7.70;;;;;;;6.10;100.00;101336.53;5010511;28;20037;-72
2022/10/10 03:45:57;;;;;;;10.15;7.43;;;;;;;6.10;100.00;101336.53;5011651;28;20030;-72
2022/10/10 03:48:23;;;;;;;13.02;7.40;;;;;;;6.11;100.00;101337.38;5013425;28;20417;-72
2022/10/10 03:50:48;;;;;;;11.05;7.05;;;;;;;6.13;100.00;101350.34;5011430;28;20046;-72
2022/10/10 03:53:13;;;;;;;15.93;8.18;;;;;;;6.05;100.00;101327.03;5016399;28;20049;-72
2022/10/10 03:55:40;;;;;;;11.10;7.43;;;;;;;6.15;100.00;101341.75;5014580;28;20422;-72
2022/10/10 03:58:06;;;;;;;15.68;7.80;;;;;;;6.12;100.00;101331.38;5011090;28;20033;-72
2022/10/10 04:00:31;;;;;;;12.80;7.72;;;;;;;6.10;100.00;101330.50;5008580;28;20092;-72
2022/10/10 04:02:58;;;;;;;13.55;7.55;;;;;;;6.15;100.00;101335.66;5017799;28;20072;-72
2022/10/10 04:05:24;;;;;;;11.75;7.97;;;;;;;6.19;100.00;101340.03;5009339;28;20037;-72
2022/10/10 04:07:49;;;;;;;13.05;8.10;;;;;;;6.19;100.00;101340.88;5015056;28;20026;-72
2022/10/10 04:10:15;;;;;;;10.95;7.60;;;;;;;6.21;100.00;101335.69;5018340;28;20927;-72
2022/10/10 04:12:40;;;;;;;12.50;7.72;;;;;;;6.23;100.00;101336.56;5014095;28;20053;-72
2022/10/10 04:15:06;;;;;;;15.30;8.07;;;;;;;6.18;100.00;101328.81;5013546;28;20022;-72
2022/10/10 04:17:31;;;;;;;13.68;7.47;;;;;;;6.18;100.00;101333.97;5014125;28;20037;-72
2022/10/10 04:19:56;;;;;;;12.55;8.27;;;;;;;6.13;100.00;101325.31;5014991;28;20037;-71
2022/10/10 04:22:22;;;;;;;12.93;7.93;;;;;;;6.15;100.00;101330.50;5014019;28;20041;-72
2022/10/10 04:24:47;;;;;;;14.32;8.50;;;;;;;6.04;100.00;101320.13;5024289;28;20038;-72
2022/10/10 04:27:12;;;;;;;11.13;7.82;;;;;;;6.05;100.00;101330.50;5014731;28;20113;-72
2022/10/10 04:29:38;;;;;;;14.02;8.60;;;;;;;6.02;100.00;101334.81;5014098;28;20037;-72
2022/10/10 04:32:03;;;;;;;13.00;7.85;;;;;;;6.01;100.00;101333.06;5007593;28;20025;-72
2022/10/10 04:34:28;;;;;;;10.57;7.65;;;;;;;5.92;100.00;101322.63;5013866;28;20029;-72
2022/10/10 04:36:54;;;;;;;12.95;8.23;;;;;;;5.96;100.00;101340.81;5013380;28;20018;-71
2022/10/10 04:39:19;;;;;;;16.05;8.45;;;;;;;5.93;100.00;101343.38;5014113;28;20359;-72
2022/10/10 04:41:48;;;;;;;11.30;8.05;;;;;;;5.90;100.00;101335.56;5014344;28;20053;-71
2022/10/10 04:44:15;;;;;;;11.85;7.88;;;;;;;5.85;100.00;101334.69;5013463;28;20490;-72
2022/10/10 04:46:40;;;;;;;13.98;8.00;;;;;;;5.82;100.00;101332.97;5012812;28;20571;-72
2022/10/10 04:49:05;;;;;;;12.20;8.13;;;;;;;5.75;100.00;101328.59;5013954;28;20125;-72
2022/10/10 04:51:31;;;;;;;14.32;8.32;;;;;;;5.75;100.00;101332.91;5011686;28;20025;-72
2022/10/10 04:53:57;;;;;;;13.18;8.52;;;;;;;5.62;100.00;101311.31;5014561;28;20380;-71
2022/10/10 04:56:24;;;;;;;13.85;8.15;;;;;;;5.72;100.00;101338.97;5013851;28;20018;-72
2022/10/10 04:58:50;;;;;;;13.48;7.95;;;;;;;5.72;100.00;101327.72;5013650;28;20469;-72
2022/10/10 05:01:15;;;;;;;13.82;7.88;;;;;;;5.69;100.00;101325.13;5015308;28;20097;-72
2022/10/10 05:03:40;;;;;;;12.52;7.90;;;;;;;5.66;100.00;101320.84;5013198;28;20482;-72
2022/10/10 05:06:06;;;;;;;15.70;8.88;;;;;;;5.68;100.00;101331.16;5013205;28;20470;-72
2022/10/10 05:08:31;;;;;;;14.93;8.45;;;;;;;5.68;100.00;101326.84;5015280;28;20041;-72
2022/10/10 05:10:57;;;;;;;14.07;8.65;;;;;;;5.65;100.00;101319.09;5022941;28;20096;-72
2022/10/10 05:13:22;;;;;;;14.82;8.70;;;;;;;5.69;100.00;101327.72;5011969;28;20030;-72
2022/10/10 05:15:51;;;;;;;15.90;8.43;;;;;;;5.69;100.00;101323.44;5013154;28;20030;-72
2022/10/10 05:18:16;;;;;;;14.95;8.30;;;;;;;5.70;100.00;101321.69;5012477;28;20109;-72
2022/10/10 05:20:42;;;;;;;18.10;8.82;;;;;;;5.63;100.00;101313.91;5013946;28;20105;-72
2022/10/10 05:23:08;;;;;;;17.45;8.68;;;;;;;5.67;100.00;101317.38;5012466;28;20026;-72
2022/10/10 05:25:33;;;;;;;14.30;8.10;;;;;;;5.66;100.00;101313.06;5011346;28;20033;-72
2022/10/10 05:27:58;;;;;;;16.65;9.38;;;;;;;5.64;100.00;101320.81;5014285;28;20026;-71
2022/10/10 05:30:24;;;;;;;12.68;8.85;;;;;;;5.63;100.00;101318.22;5013308;28;20021;-72
2022/10/10 05:32:49;;;;;;;16.10;9.25;;;;;;;5.61;100.00;101318.22;5014621;28;20029;-72
2022/10/10 05:35:15;;;;;;;14.30;8.63;;;;;;;5.63;100.00;101326.84;5013313;28;20112;-72
2022/10/10 05:37:40;;;;;;;14.98;8.32;;;;;;;5.63;100.00;101320.81;5012793;28;20037;-72
2022/10/10 05:40:06;;;;;;;13.73;8.88;;;;;;;5.64;100.00;101327.72;5012165;28;20057;-72
2022/10/10 05:42:31;;;;;;;17.85;9.02;;;;;;;5.61;100.00;101322.53;5012220;28;20038;-72
2022/10/10 05:44:56;;;;;;;18.75;8.48;;;;;;;5.62;100.00;101325.13;5012284;28;20045;-72
2022/10/10 05:47:22;;;;;;;13.52;8.43;;;;;;;5.59;100.00;101331.97;5011823;28;20072;-72
2022/10/10 05:49:48;;;;;;;13.68;8.70;;;;;;;5.65;100.00;101337.19;5013314;28;20038;-72
2022/10/10 05:52:13;;;;;;;15.10;8.40;;;;;;;5.64;100.00;101328.56;5012662;28;20025;-72
2022/10/10 05:54:39;;;;;;;14.18;9.02;;;;;;;5.63;100.00;101318.22;5012735;28;20037;-72
2022/10/10 05:57:04;;;;;;;15.55;9.05;;;;;;;5.68;100.00;101332.03;5016448;28;20026;-72
2022/10/10 05:59:29;;;;;;;18.60;9.30;;;;;;;5.70;100.00;101322.56;5012061;28;20041;-72
2022/10/10 06:01:55;;;;;;;15.27;9.23;;;;;;;5.69;100.00;101323.44;5012758;28;20083;-72
2022/10/10 06:04:22;;;;;;;16.27;9.32;;;;;;;5.66;100.00;101326.00;5008671;28;20026;-72
2022/10/10 06:06:47;;;;;;;14.27;8.77;;;;;;;5.70;100.00;101324.28;5015258;28;20072;-72
2022/10/10 06:09:12;;;;;;;15.15;8.95;;;;;;;5.68;100.00;101323.41;5012535;28;20100;-72
2022/10/10 06:11:37;;;;;;;23.02;11.15;;;;;;;5.71;100.00;101331.19;5015016;28;20441;-72
2022/10/10 06:14:03;;;;;;;18.10;9.50;;;;;;;5.71;100.00;101326.00;5012485;28;20034;-72
2022/10/10 06:16:28;;;;;;;15.18;9.15;;;;;;;5.78;100.00;101328.63;5018134;28;20112;-72
2022/10/10 06:18:55;;;;;;;18.88;9.85;;;;;;;5.72;100.00;101327.72;5023757;28;20030;-71
2022/10/10 06:21:21;;;;;;;14.63;9.60;;;;;;;5.73;100.00;101327.75;5025249;28;20099;-72
2022/10/10 06:23:47;;;;;;;15.20;8.98;;;;;;;5.80;100.00;101342.44;5018852;28;20056;-71
2022/10/10 06:26:12;;;;;;;19.48;10.40;;;;;;;5.86;100.00;101346.78;5019295;28;20394;-71
2022/10/10 06:28:37;;;;;;;16.30;9.82;;;;;;;5.89;100.00;101346.78;5011730;28;20030;-72
2022/10/10 06:31:05;;;;;;;17.13;9.20;;;;;;;5.92;100.00;101345.91;5011756;28;20045;-71
2022/10/10 06:33:31;;;;;;;13.35;9.52;;;;;;;5.93;100.00;101337.34;5012134;28;20033;-71
2022/10/10 06:35:57;;;;;;;16.48;8.65;;;;;;;5.97;100.00;101339.09;5011187;28;20080;-71
2022/10/10 06:38:22;;;;;;;19.02;9.60;;;;;;;5.96;100.00;101333.06;5011428;28;20041;-71
2022/10/10 06:40:47;;;;;;;18.00;9.85;;;;;;;5.92;100.00;101330.41;5012878;28;20037;-71
2022/10/10 06:43:14;;;;;;;18.92;9.80;;;;;;;6.09;100.00;101341.72;5012073;28;20064;-71
2022/10/10 06:45:42;;;;;;;17.85;9.55;;;;;;;6.14;100.00;101355.53;5011010;28;20044;-71
2022/10/10 06:48:08;;;;;;;18.52;9.45;;;;;;;6.16;100.00;101356.41;5010705;28;20121;-71
2022/10/10 06:50:34;;;;;;;19.35;9.95;;;;;;;6.19;100.00;101356.41;5010464;28;20486;-71
2022/10/10 06:53:00;;;;;;;19.88;10.13;;;;;;;6.23;100.00;101360.72;5009598;28;20030;-71
2022/10/10 06:55:25;;;;;;;21.27;10.43;;;;;;;6.32;100.00;101359.91;4997840;28;20057;-72
2022/10/10 06:57:51;;;;;;;19.08;10.05;;;;;;;6.39;100.00;101356.47;5007176;28;20072;-71
2022/10/10 07:00:16;;;;;;;16.42;9.13;;;;;;;6.44;100.00;101357.34;5009466;28;20455;-71
2022/10/10 07:02:42;;;;;;;17.05;9.93;;;;;;;6.53;100.00;101357.34;5008170;28;20030;-71
2022/10/10 07:05:16;;;;;;;18.73;9.80;;;;;;;6.64;100.00;101353.88;5011493;28;20026;-71
2022/10/10 07:07:42;;;;;;;20.50;10.48;;;;;;;6.74;100.00;101361.69;5011151;28;20041;-71
2022/10/10 07:10:10;;;;;;;19.67;10.07;;;;;;;6.94;100.00;101363.44;5011984;28;20033;-71
2022/10/10 07:12:38;;;;;;;21.98;10.68;;;;;;;7.04;100.00;101360.81;5009258;28;20493;-71
2022/10/10 07:15:04;;;;;;;17.67;9.93;;;;;;;7.21;100.00;101363.38;5010581;28;20077;-71
2022/10/10 07:17:30;;;;;;;16.52;10.02;;;;;;;7.32;100.00;101365.97;5010717;28;20072;-71
2022/10/10 07:19:55;;;;;;;14.63;9.48;;;;;;;7.46;100.00;101368.56;5010566;28;20374;-70
2022/10/10 07:22:20;;;;;;;17.35;9.23;;;;;;;7.60;100.00;101369.38;5010517;28;20045;-72
2022/10/10 07:24:46;;;;;;;21.38;10.32;;;;;;;7.68;100.00;101359.84;5010307;28;20032;-71
2022/10/10 07:27:11;;;;;;;17.05;9.45;;;;;;;7.89;100.00;101366.69;5012224;28;20029;-71
2022/10/10 07:29:36;;;;;;;16.10;9.38;;;;;;;7.92;100.00;101356.28;5007615;28;20556;-71
2022/10/10 07:32:01;;;;;;;14.25;9.27;;;;;;;8.14;100.00;101371.75;5010549;28;20049;-71
2022/10/10 07:34:27;;;;;;;20.42;9.32;;;;;;;8.28;100.00;101374.28;5006079;28;20385;-71
2022/10/10 07:36:52;;;;;;;21.67;9.60;;;;;;;8.44;100.00;101361.22;5015090;28;20037;-71
2022/10/10 07:39:22;;;;;;;17.02;9.07;;;;;;;8.64;100.00;101373.22;5014330;28;20105;-71
2022/10/10 07:41:49;;;;;;;20.45;9.63;;;;;;;8.81;100.00;101373.09;5015950;28;20026;-71
2022/10/10 07:44:15;;;;;;;18.55;8.82;;;;;;;9.01;100.00;101376.41;5010512;28;20021;-71
2022/10/10 07:46:40;;;;;;;16.35;8.60;;;;;;;9.10;100.00;101359.88;5014543;28;20033;-72
2022/10/10 07:49:05;;;;;;;17.60;8.75;;;;;;;9.26;100.00;101373.59;5013530;28;20061;-71
2022/10/10 07:51:30;;;;;;;16.73;8.63;;;;;;;9.44;100.00;101381.19;5015286;28;20124;-71
2022/10/10 07:53:56;;;;;;;11.82;8.63;;;;;;;9.57;100.00;101381.94;5008213;28;20029;-71
2022/10/10 07:56:22;;;;;;;19.33;10.10;;;;;;;9.68;100.00;101390.50;5015089;28;20411;-71
2022/10/10 07:58:47;;;;;;;17.10;8.68;;;;;;;9.72;100.00;101388.72;5009474;28;20037;-71
2022/10/10 08:01:13;;;;;;;17.60;8.35;;;;;;;9.85;100.00;101390.31;5014914;28;20060;-71
2022/10/10 08:03:39;;;;;;;11.65;8.07;;;;;;;9.88;100.00;101390.28;5014975;28;20025;-71
2022/10/10 08:06:10;;;;;;;16.20;8.48;;;;;;;10.02;100.00;101395.31;5002385;28;20018;-71
2022/10/10 08:08:36;;;;;;;13.02;7.78;;;;;;;10.06;100.00;101395.25;5004316;28;20030;-72
2022/10/10 08:11:06;;;;;;;19.98;8.77;;;;;;;10.15;100.00;101394.28;5001544;28;20108;-71
2022/10/10 08:13:33;;;;;;;16.77;8.02;;;;;;;10.19;100.00;101402.91;5008880;28;20378;-70
2022/10/10 08:15:58;;;;;;;16.10;8.18;;;;;;;10.18;100.00;101388.16;5013958;28;20109;-71
2022/10/10 08:18:24;;;;;;;14.20;8.18;;;;;;;10.27;100.00;101388.94;5014647;28;20443;-71
2022/10/10 08:21:00;;;;;;;15.73;7.75;;;;;;;10.44;100.00;101390.47;5014533;28;20808;-70
2022/10/10 08:23:25;;;;;;;15.15;7.47;;;;;;;10.60;100.00;101393.72;5014045;28;20026;-70
2022/10/10 08:25:51;;;;;;;12.70;7.45;;;;;;;10.69;100.00;101397.03;5015197;28;20030;-70
2022/10/10 08:28:16;;;;;;;14.00;7.70;;;;;;;10.77;100.00;101386.47;5014435;28;20064;-70
2022/10/10 08:30:41;;;;;;;15.90;7.20;;;;;;;10.83;100.00;101390.75;5011936;28;20211;-70
2022/10/10 08:33:07;;;;;;;15.93;6.93;;;;;;;10.83;100.00;101391.59;5015041;28;20029;-70
2022/10/10 08:35:36;;;;;;;13.95;7.43;;;;;;;10.88;100.00;101397.59;5013841;28;20444;-70
2022/10/10 08:38:02;;;;;;;10.43;6.47;;;;;;;10.90;100.00;101392.38;5015295;28;20018;-71
2022/10/10 08:40:27;;;;;;;13.15;7.32;;;;;;;11.01;100.00;101406.09;5014335;28;20029;-71
2022/10/10 08:42:55;;;;;;;13.63;7.20;;;;;;;11.15;100.00;101403.25;5014223;28;20033;-71
2022/10/10 08:45:25;;;;;;;12.10;7.35;;;;;;;11.26;100.00;101390.91;5005560;28;20030;-72
2022/10/10 08:47:58;;;;;;;13.70;7.72;;;;;;;11.48;100.00;101397.47;5011583;28;20057;-71
2022/10/10 08:50:30;;;;;;;15.05;7.05;;;;;;;11.66;100.00;101398.00;5008942;28;20042;-71
2022/10/10 08:53:02;;;;;;;13.52;6.97;;;;;;;11.88;100.00;101401.09;5009759;28;20026;-72
2022/10/10 08:55:37;;;;;;;13.23;7.28;;;;;;;12.15;100.00;101404.88;5013682;28;20117;-71
2022/10/10 08:58:24;;;;;;;11.60;7.28;;;;;;;12.41;100.00;101399.94;5013908;28;20030;-71
2022/10/10 09:00:54;;;;;;;14.52;7.00;;;;;;;12.58;100.00;101389.09;5006914;28;20038;-71
2022/10/10 09:03:32;;;;;;;9.90;6.78;;;;;;;12.76;100.00;101400.91;5005698;28;20504;-71
2022/10/10 09:06:18;;;;;;;11.25;6.88;;;;;;;12.93;100.00;101400.50;5014150;28;20030;-71
2022/10/10 09:09:08;;;;;;;12.88;6.43;;;;;;;13.13;99.31;101392.16;5007752;28;20477;-72
2022/10/10 09:12:32;;;;;;;12.48;6.00;;;;;;;13.31;98.99;101391.72;5002511;28;20034;-71
2022/10/10 09:15:22;;;;;;;13.07;6.45;;;;;;;13.43;97.74;101402.75;4924614;29;20039;-71
2022/10/10 09:18:17;;;;;;;11.07;5.70;;;;;;;13.50;97.12;101396.44;5012230;28;20057;-71
2022/10/10 09:20:49;;;;;;;8.95;5.45;;;;;;;13.49;97.10;101400.84;5007484;28;20037;-71
2022/10/10 09:23:35;;;;;;;11.27;5.97;;;;;;;13.64;97.92;101409.22;5006456;28;20025;-73
2022/10/10 09:26:06;;;;;;;12.75;5.82;;;;;;;13.71;92.75;101390.66;5013805;28;20038;-79
2022/10/10 09:28:48;;;;;;;12.63;5.60;;;;;;;13.91;92.67;101415.44;5010745;28;20501;-72
2022/10/10 09:31:18;;;;;;;12.82;6.07;;;;;;;13.99;91.62;101423.94;5005858;28;20046;-71
2022/10/10 09:33:56;;;;;;;13.65;6.05;;;;;;;14.10;90.95;101429.75;5009252;28;20042;-71
2022/10/10 09:36:29;;;;;;;16.02;5.68;;;;;;;14.26;90.33;101423.16;5011508;28;20062;-72
2022/10/10 09:38:58;;;;;;;16.38;5.68;;;;;;;14.43;89.99;101427.03;5003170;28;20382;-72
2022/10/10 09:41:38;;;;;;;6.15;4.78;;;;;;;14.57;90.86;101427.50;5002320;28;20041;-72
2022/10/10 09:44:08;;;;;;;9.88;5.53;;;;;;;14.81;87.52;101432.88;5005552;28;20120;-72
2022/10/10 09:46:35;;;;;;;13.68;5.75;;;;;;;15.06;86.40;101433.81;5005839;28;20053;-72
2022/10/10 09:49:01;;;;;;;8.32;4.90;;;;;;;15.20;83.39;101428.97;5008529;28;20109;-72
2022/10/10 09:51:29;;;;;;;8.73;5.13;;;;;;;15.19;83.10;101432.50;5012772;28;20454;-71
2022/10/10 09:53:54;;;;;;;9.70;4.60;;;;;;;15.17;83.88;101439.59;5010642;28;20485;-72
2022/10/10 09:56:23;;;;;;;8.13;4.82;;;;;;;15.09;83.95;101443.38;5012269;28;20030;-72
2022/10/10 09:58:51;;;;;;;6.97;5.10;;;;;;;15.01;85.45;101446.25;5011701;28;20026;-72
2022/10/10 10:01:30;;;;;;;11.77;4.68;;;;;;;14.98;85.62;101447.19;5012158;28;20033;-72
2022/10/10 10:04:16;;;;;;;11.43;4.97;;;;;;;14.94;86.38;101450.84;5009643;28;20493;-73
2022/10/10 10:06:52;;;;;;;14.25;6.07;;;;;;;14.97;85.44;101445.47;5002816;28;20092;-73
2022/10/10 10:09:21;;;;;;;10.57;5.00;;;;;;;14.91;85.86;101434.28;5010953;28;20175;-72
2022/10/10 10:11:54;;;;;;;9.18;4.63;;;;;;;14.92;86.26;101449.16;5004523;28;20029;-72
2022/10/10 10:14:29;;;;;;;8.60;4.85;;;;;;;14.92;87.28;101447.38;5008575;28;20462;-73
2022/10/10 10:17:05;;;;;;;12.18;6.10;;;;;;;14.83;85.74;101447.69;4997832;28;20096;-72
2022/10/10 10:19:37;;;;;;;9.45;5.45;;;;;;;14.70;87.01;101455.06;5011214;28;20073;-72
2022/10/10 10:22:03;;;;;;;9.98;5.88;;;;;;;14.51;87.66;101452.13;5003911;28;20022;-72
2022/10/10 10:24:35;;;;;;;14.43;6.03;;;;;;;14.41;88.99;101450.66;5008594;28;20121;-73
2022/10/10 10:27:09;;;;;;;11.60;5.35;;;;;;;14.32;89.88;101450.09;5005118;28;20391;-72
2022/10/10 10:29:35;;;;;;;12.25;5.88;;;;;;;14.29;90.19;101441.41;5011327;28;20017;-73
2022/10/10 10:32:31;;;;;;;13.30;5.57;;;;;;;14.44;90.86;101449.72;5002141;28;20037;-72
2022/10/10 10:35:15;;;;;;;11.18;5.70;;;;;;;14.77;91.20;101447.00;5001632;28;20018;-73
2022/10/10 10:38:27;;;;;;;10.85;5.30;;;;;;;15.11;88.54;101455.53;5006573;28;20045;-76
2022/10/10 10:41:14;;;;;;;14.38;5.38;;;;;;;15.46;87.08;101458.75;5005162;28;20049;-73
2022/10/10 10:44:12;;;;;;;10.05;5.40;;;;;;;15.76;87.64;101459.50;5004901;28;20447;-73
2022/10/10 10:46:52;;;;;;;9.57;5.45;;;;;;;15.82;83.11;101463.69;5003581;28;20779;-74
2022/10/10 10:49:45;;;;;;;9.30;4.80;;;;;;;15.80;84.71;101468.16;4999667;28;20044;-73
2022/10/10 10:52:43;;;;;;;14.05;5.22;;;;;;;15.71;82.11;101473.72;5011276;28;20029;-73
2022/10/10 10:55:21;;;;;;;14.23;5.78;;;;;;;15.78;82.41;101464.69;4962031;28;20387;-73
2022/10/10 10:58:05;;;;;;;12.48;4.72;;;;;;;16.19;82.60;101467.63;4999865;28;20030;-73
2022/10/10 11:00:44;;;;;;;10.10;4.80;;;;;;;16.48;82.38;101471.78;5009489;28;20038;-72
2022/10/10 11:03:42;;;;;;;14.13;5.20;;;;;;;16.67;83.70;101474.56;5010821;28;20101;-73
2022/10/10 11:06:25;;;;;;;12.07;5.60;;;;;;;16.79;82.62;101479.38;5004769;28;20041;-73
2022/10/10 11:09:02;;;;;;;12.60;5.80;;;;;;;16.83;80.75;101481.81;5011833;28;20030;-73
2022/10/10 11:11:45;;;;;;;10.13;5.45;;;;;;;16.75;81.70;101496.22;5010904;28;20092;-73
2022/10/10 11:14:36;;;;;;;13.88;5.53;;;;;;;16.56;81.71;101486.38;5011990;28;20037;-73
2022/10/10 11:17:25;;;;;;;13.90;5.57;;;;;;;16.29;81.63;101492.69;5007492;28;20033;-73
2022/10/10 11:20:28;;;;;;;8.02;5.22;;;;;;;16.02;84.66;101500.66;4949239;28;20046;-74
2022/10/10 11:23:10;;;;;;;7.57;4.97;;;;;;;15.91;83.05;101508.06;4976031;28;20058;-73
2022/10/10 11:25:43;;;;;;;11.60;5.30;;;;;;;16.13;83.07;101492.38;5010576;28;20053;-73
2022/10/10 11:28:25;;;;;;;11.52;5.78;;;;;;;16.46;81.01;101499.94;5004828;28;20038;-73
2022/10/10 11:30:56;;;;;;;9.93;5.10;;;;;;;16.66;81.36;101496.56;5000829;28;20033;-73
2022/10/10 11:33:38;;;;;;;11.82;5.47;;;;;;;16.73;79.77;101498.03;5009020;28;20414;-74